sensor_id;sensor_type;location;lat;lon;timestamp;P1;durP1;ratioP1;P2;durP2;ratioP2
72524;SDS011;60547;48.502;8.996;2023-02-18T00:01:52;2.90;;;1.40;;
72524;SDS011;60547;48.502;8.996;2023-02-18T00:04:21;2.83;;;1.50;;
72524;SDS011;60547;48.502;8.996;2023-02-18T00:06:55;2.70;;;1.45;;
72524;SDS011;60547;48.502;8.996;2023-02-18T00:09:23;3.50;;;1.70;;
72524;SDS011;60547;48.502;8.996;2023-02-18T00:11:49;2.88;;;1.50;;
72524;SDS011;60547;48.502;8.996;2023-02-18T00:14:15;2.55;;;1.40;;
72524;SDS011;60547;48.502;8.996;2023-02-18T00:16:42;3.05;;;1.60;;
72524;SDS011;60547;48.502;8.996;2023-02-18T00:19:12;2.78;;;1.48;;
72524;SDS011;60547;48.502;8.996;2023-02-18T00:21:47;2.85;;;1.60;;
72524;SDS011;60547;48.502;8.996;2023-02-18T00:24:22;3.75;;;1.50;;
72524;SDS011;60547;48.502;8.996;2023-02-18T00:26:55;2.80;;;1.20;;
72524;SDS011;60547;48.502;8.996;2023-02-18T00:29:21;3.28;;;1.40;;
72524;SDS011;60547;48.502;8.996;2023-02-18T00:31:49;2.50;;;1.20;;
72524;SDS011;60547;48.502;8.996;2023-02-18T00:34:15;3.10;;;1.52;;
72524;SDS011;60547;48.502;8.996;2023-02-18T00:36:40;3.00;;;1.45;;
72524;SDS011;60547;48.502;8.996;2023-02-18T00:39:09;2.40;;;1.20;;
72524;SDS011;60547;48.502;8.996;2023-02-18T00:41:35;2.33;;;1.23;;
72524;SDS011;60547;48.502;8.996;2023-02-18T00:44:05;2.92;;;1.30;;
72524;SDS011;60547;48.502;8.996;2023-02-18T00:46:30;2.35;;;1.40;;
72524;SDS011;60547;48.502;8.996;2023-02-18T00:48:56;2.78;;;1.15;;
72524;SDS011;60547;48.502;8.996;2023-02-18T00:51:25;2.80;;;1.33;;
72524;SDS011;60547;48.502;8.996;2023-02-18T00:53:51;2.58;;;1.40;;
72524;SDS011;60547;48.502;8.996;2023-02-18T00:56:16;2.60;;;1.27;;
72524;SDS011;60547;48.502;8.996;2023-02-18T00:58:42;3.83;;;1.50;;
72524;SDS011;60547;48.502;8.996;2023-02-18T01:01:08;3.20;;;1.27;;
72524;SDS011;60547;48.502;8.996;2023-02-18T01:03:35;2.65;;;1.33;;
72524;SDS011;60547;48.502;8.996;2023-02-18T01:06:01;2.22;;;1.20;;
72524;SDS011;60547;48.502;8.996;2023-02-18T01:08:28;2.70;;;1.23;;
72524;SDS011;60547;48.502;8.996;2023-02-18T01:10:54;2.00;;;1.17;;
72524;SDS011;60547;48.502;8.996;2023-02-18T01:13:22;2.38;;;1.30;;
72524;SDS011;60547;48.502;8.996;2023-02-18T01:15:47;2.30;;;1.20;;
72524;SDS011;60547;48.502;8.996;2023-02-18T01:18:13;3.03;;;1.23;;
72524;SDS011;60547;48.502;8.996;2023-02-18T01:20:39;2.83;;;1.13;;
72524;SDS011;60547;48.502;8.996;2023-02-18T01:23:06;2.50;;;1.20;;
72524;SDS011;60547;48.502;8.996;2023-02-18T01:25:32;2.95;;;1.20;;
72524;SDS011;60547;48.502;8.996;2023-02-18T01:27:58;2.60;;;1.17;;
72524;SDS011;60547;48.502;8.996;2023-02-18T01:30:24;3.80;;;1.48;;
72524;SDS011;60547;48.502;8.996;2023-02-18T01:32:50;2.65;;;1.25;;
72524;SDS011;60547;48.502;8.996;2023-02-18T01:35:17;2.45;;;1.20;;
72524;SDS011;60547;48.502;8.996;2023-02-18T01:37:43;2.42;;;1.10;;
72524;SDS011;60547;48.502;8.996;2023-02-18T01:40:11;2.55;;;1.23;;
72524;SDS011;60547;48.502;8.996;2023-02-18T01:42:40;2.60;;;1.30;;
72524;SDS011;60547;48.502;8.996;2023-02-18T01:47:59;2.83;;;1.35;;
72524;SDS011;60547;48.502;8.996;2023-02-18T01:50:29;2.20;;;1.08;;
72524;SDS011;60547;48.502;8.996;2023-02-18T01:52:57;3.05;;;1.27;;
72524;SDS011;60547;48.502;8.996;2023-02-18T01:55:23;2.15;;;1.00;;
72524;SDS011;60547;48.502;8.996;2023-02-18T01:57:48;2.17;;;1.00;;
72524;SDS011;60547;48.502;8.996;2023-02-18T02:00:15;2.33;;;1.25;;
72524;SDS011;60547;48.502;8.996;2023-02-18T02:02:46;2.33;;;1.20;;
72524;SDS011;60547;48.502;8.996;2023-02-18T02:07:42;2.88;;;1.10;;
72524;SDS011;60547;48.502;8.996;2023-02-18T02:10:10;2.10;;;1.00;;
72524;SDS011;60547;48.502;8.996;2023-02-18T02:12:41;1.98;;;1.10;;
72524;SDS011;60547;48.502;8.996;2023-02-18T02:15:17;2.25;;;1.20;;
72524;SDS011;60547;48.502;8.996;2023-02-18T02:37:49;2.20;;;0.90;;
72524;SDS011;60547;48.502;8.996;2023-02-18T02:46:03;2.10;;;0.88;;
72524;SDS011;60547;48.502;8.996;2023-02-18T02:48:37;1.98;;;1.00;;
72524;SDS011;60547;48.502;8.996;2023-02-18T02:54:10;4.25;;;1.20;;
72524;SDS011;60547;48.502;8.996;2023-02-18T02:56:42;2.03;;;0.80;;
72524;SDS011;60547;48.502;8.996;2023-02-18T02:59:10;2.10;;;1.02;;
72524;SDS011;60547;48.502;8.996;2023-02-18T03:13:03;1.55;;;0.82;;
72524;SDS011;60547;48.502;8.996;2023-02-18T03:15:37;1.85;;;0.95;;
72524;SDS011;60547;48.502;8.996;2023-02-18T03:18:19;2.22;;;0.90;;
72524;SDS011;60547;48.502;8.996;2023-02-18T03:21:15;2.15;;;1.00;;
72524;SDS011;60547;48.502;8.996;2023-02-18T03:24:08;1.60;;;0.80;;
72524;SDS011;60547;48.502;8.996;2023-02-18T03:26:56;1.75;;;0.82;;
72524;SDS011;60547;48.502;8.996;2023-02-18T03:29:26;3.28;;;1.15;;
72524;SDS011;60547;48.502;8.996;2023-02-18T03:31:54;2.55;;;0.90;;
72524;SDS011;60547;48.502;8.996;2023-02-18T03:34:27;1.65;;;0.80;;
72524;SDS011;60547;48.502;8.996;2023-02-18T03:36:54;1.58;;;0.90;;
72524;SDS011;60547;48.502;8.996;2023-02-18T03:39:22;1.30;;;0.70;;
72524;SDS011;60547;48.502;8.996;2023-02-18T03:41:50;1.63;;;0.80;;
72524;SDS011;60547;48.502;8.996;2023-02-18T03:44:16;2.38;;;1.08;;
72524;SDS011;60547;48.502;8.996;2023-02-18T03:46:42;1.90;;;1.08;;
72524;SDS011;60547;48.502;8.996;2023-02-18T03:49:10;1.92;;;0.90;;
72524;SDS011;60547;48.502;8.996;2023-02-18T03:51:37;1.42;;;0.70;;
72524;SDS011;60547;48.502;8.996;2023-02-18T03:54:03;1.92;;;0.98;;
72524;SDS011;60547;48.502;8.996;2023-02-18T03:56:28;1.65;;;0.90;;
72524;SDS011;60547;48.502;8.996;2023-02-18T03:58:54;1.80;;;0.90;;
72524;SDS011;60547;48.502;8.996;2023-02-18T04:01:19;1.75;;;1.00;;
72524;SDS011;60547;48.502;8.996;2023-02-18T04:03:45;2.65;;;1.20;;
72524;SDS011;60547;48.502;8.996;2023-02-18T04:06:10;1.70;;;0.90;;
72524;SDS011;60547;48.502;8.996;2023-02-18T04:08:36;2.20;;;1.10;;
72524;SDS011;60547;48.502;8.996;2023-02-18T04:11:02;2.35;;;1.00;;
72524;SDS011;60547;48.502;8.996;2023-02-18T04:13:29;1.80;;;0.90;;
72524;SDS011;60547;48.502;8.996;2023-02-18T04:15:55;1.83;;;1.02;;
72524;SDS011;60547;48.502;8.996;2023-02-18T04:18:21;1.50;;;1.00;;
72524;SDS011;60547;48.502;8.996;2023-02-18T04:20:47;1.50;;;0.80;;
72524;SDS011;60547;48.502;8.996;2023-02-18T04:23:12;1.92;;;1.00;;
72524;SDS011;60547;48.502;8.996;2023-02-18T04:25:38;1.98;;;1.08;;
72524;SDS011;60547;48.502;8.996;2023-02-18T04:28:04;2.22;;;0.90;;
72524;SDS011;60547;48.502;8.996;2023-02-18T04:30:30;2.20;;;1.00;;
72524;SDS011;60547;48.502;8.996;2023-02-18T04:32:58;1.65;;;0.80;;
72524;SDS011;60547;48.502;8.996;2023-02-18T04:35:23;2.45;;;1.20;;
72524;SDS011;60547;48.502;8.996;2023-02-18T04:37:49;1.63;;;0.85;;
72524;SDS011;60547;48.502;8.996;2023-02-18T04:40:15;1.88;;;0.90;;
72524;SDS011;60547;48.502;8.996;2023-02-18T04:42:40;1.90;;;0.93;;
72524;SDS011;60547;48.502;8.996;2023-02-18T04:45:06;2.38;;;1.02;;
72524;SDS011;60547;48.502;8.996;2023-02-18T04:47:33;1.45;;;0.85;;
72524;SDS011;60547;48.502;8.996;2023-02-18T04:49:58;2.10;;;1.10;;
72524;SDS011;60547;48.502;8.996;2023-02-18T04:52:24;1.98;;;1.00;;
72524;SDS011;60547;48.502;8.996;2023-02-18T04:54:50;2.03;;;1.10;;
72524;SDS011;60547;48.502;8.996;2023-02-18T04:57:15;2.22;;;0.90;;
72524;SDS011;60547;48.502;8.996;2023-02-18T04:59:41;2.90;;;1.10;;
72524;SDS011;60547;48.502;8.996;2023-02-18T05:02:06;1.58;;;0.90;;
72524;SDS011;60547;48.502;8.996;2023-02-18T05:04:32;2.15;;;1.00;;
72524;SDS011;60547;48.502;8.996;2023-02-18T05:06:58;2.08;;;1.10;;
72524;SDS011;60547;48.502;8.996;2023-02-18T05:09:23;3.20;;;1.35;;
72524;SDS011;60547;48.502;8.996;2023-02-18T05:11:49;2.20;;;1.10;;
72524;SDS011;60547;48.502;8.996;2023-02-18T05:14:15;2.15;;;0.90;;
72524;SDS011;60547;48.502;8.996;2023-02-18T05:16:41;2.30;;;0.90;;
72524;SDS011;60547;48.502;8.996;2023-02-18T05:19:06;2.50;;;1.10;;
72524;SDS011;60547;48.502;8.996;2023-02-18T05:21:32;2.10;;;1.00;;
72524;SDS011;60547;48.502;8.996;2023-02-18T05:23:58;3.17;;;1.25;;
72524;SDS011;60547;48.502;8.996;2023-02-18T05:26:24;1.77;;;1.00;;
72524;SDS011;60547;48.502;8.996;2023-02-18T05:28:49;2.15;;;1.02;;
72524;SDS011;60547;48.502;8.996;2023-02-18T05:31:15;2.67;;;1.08;;
72524;SDS011;60547;48.502;8.996;2023-02-18T05:33:40;2.65;;;1.13;;
72524;SDS011;60547;48.502;8.996;2023-02-18T05:36:06;2.20;;;0.77;;
72524;SDS011;60547;48.502;8.996;2023-02-18T05:38:32;1.88;;;1.13;;
72524;SDS011;60547;48.502;8.996;2023-02-18T05:40:57;2.22;;;0.90;;
72524;SDS011;60547;48.502;8.996;2023-02-18T05:43:23;1.63;;;0.80;;
72524;SDS011;60547;48.502;8.996;2023-02-18T05:45:48;2.05;;;0.95;;
72524;SDS011;60547;48.502;8.996;2023-02-18T05:48:14;2.08;;;0.90;;
72524;SDS011;60547;48.502;8.996;2023-02-18T05:50:39;2.10;;;0.90;;
72524;SDS011;60547;48.502;8.996;2023-02-18T05:53:05;1.75;;;0.98;;
72524;SDS011;60547;48.502;8.996;2023-02-18T05:55:31;2.05;;;0.98;;
72524;SDS011;60547;48.502;8.996;2023-02-18T05:57:57;2.08;;;1.20;;
72524;SDS011;60547;48.502;8.996;2023-02-18T06:00:22;1.75;;;0.85;;
72524;SDS011;60547;48.502;8.996;2023-02-18T06:02:48;1.90;;;0.80;;
72524;SDS011;60547;48.502;8.996;2023-02-18T06:05:13;2.05;;;1.00;;
72524;SDS011;60547;48.502;8.996;2023-02-18T06:07:39;1.27;;;0.80;;
72524;SDS011;60547;48.502;8.996;2023-02-18T06:10:04;2.03;;;1.05;;
72524;SDS011;60547;48.502;8.996;2023-02-18T06:12:31;1.73;;;0.80;;
72524;SDS011;60547;48.502;8.996;2023-02-18T06:14:56;1.92;;;1.10;;
72524;SDS011;60547;48.502;8.996;2023-02-18T06:17:22;2.83;;;1.10;;
72524;SDS011;60547;48.502;8.996;2023-02-18T06:19:47;3.03;;;1.20;;
72524;SDS011;60547;48.502;8.996;2023-02-18T06:22:13;4.03;;;1.50;;
72524;SDS011;60547;48.502;8.996;2023-02-18T06:24:38;2.35;;;1.10;;
72524;SDS011;60547;48.502;8.996;2023-02-18T06:27:04;2.47;;;1.05;;
72524;SDS011;60547;48.502;8.996;2023-02-18T06:29:30;2.30;;;1.10;;
72524;SDS011;60547;48.502;8.996;2023-02-18T06:31:58;2.75;;;1.20;;
72524;SDS011;60547;48.502;8.996;2023-02-18T06:34:25;2.40;;;1.10;;
72524;SDS011;60547;48.502;8.996;2023-02-18T06:36:51;2.92;;;1.17;;
72524;SDS011;60547;48.502;8.996;2023-02-18T06:39:16;2.15;;;1.00;;
72524;SDS011;60547;48.502;8.996;2023-02-18T06:41:42;3.67;;;1.40;;
72524;SDS011;60547;48.502;8.996;2023-02-18T06:44:08;2.20;;;1.10;;
72524;SDS011;60547;48.502;8.996;2023-02-18T06:46:33;2.53;;;1.20;;
72524;SDS011;60547;48.502;8.996;2023-02-18T06:48:59;1.88;;;1.00;;
72524;SDS011;60547;48.502;8.996;2023-02-18T06:51:24;2.35;;;1.15;;
72524;SDS011;60547;48.502;8.996;2023-02-18T06:53:50;2.30;;;1.20;;
72524;SDS011;60547;48.502;8.996;2023-02-18T06:56:16;2.38;;;1.10;;
72524;SDS011;60547;48.502;8.996;2023-02-18T06:58:41;3.38;;;1.52;;
72524;SDS011;60547;48.502;8.996;2023-02-18T07:01:07;3.22;;;1.40;;
72524;SDS011;60547;48.502;8.996;2023-02-18T07:03:33;2.55;;;1.30;;
72524;SDS011;60547;48.502;8.996;2023-02-18T07:05:58;2.50;;;1.20;;
72524;SDS011;60547;48.502;8.996;2023-02-18T07:08:24;2.38;;;1.27;;
72524;SDS011;60547;48.502;8.996;2023-02-18T07:10:50;2.17;;;1.10;;
72524;SDS011;60547;48.502;8.996;2023-02-18T07:13:16;3.17;;;1.52;;
72524;SDS011;60547;48.502;8.996;2023-02-18T07:15:41;2.63;;;1.20;;
72524;SDS011;60547;48.502;8.996;2023-02-18T07:18:07;2.05;;;1.23;;
72524;SDS011;60547;48.502;8.996;2023-02-18T07:20:32;2.83;;;1.30;;
72524;SDS011;60547;48.502;8.996;2023-02-18T07:22:58;1.92;;;1.00;;
72524;SDS011;60547;48.502;8.996;2023-02-18T07:25:24;2.17;;;1.10;;
72524;SDS011;60547;48.502;8.996;2023-02-18T07:27:50;1.55;;;1.02;;
72524;SDS011;60547;48.502;8.996;2023-02-18T07:30:16;2.47;;;1.10;;
72524;SDS011;60547;48.502;8.996;2023-02-18T07:32:43;2.58;;;1.23;;
72524;SDS011;60547;48.502;8.996;2023-02-18T07:35:09;2.58;;;1.20;;
72524;SDS011;60547;48.502;8.996;2023-02-18T07:37:37;2.38;;;1.27;;
72524;SDS011;60547;48.502;8.996;2023-02-18T07:40:02;2.67;;;1.20;;
72524;SDS011;60547;48.502;8.996;2023-02-18T07:42:28;2.72;;;1.17;;
72524;SDS011;60547;48.502;8.996;2023-02-18T07:44:54;2.70;;;1.20;;
72524;SDS011;60547;48.502;8.996;2023-02-18T07:47:19;2.40;;;1.10;;
72524;SDS011;60547;48.502;8.996;2023-02-18T07:49:45;2.75;;;1.10;;
72524;SDS011;60547;48.502;8.996;2023-02-18T07:52:12;2.45;;;1.20;;
72524;SDS011;60547;48.502;8.996;2023-02-18T07:54:38;3.03;;;1.40;;
72524;SDS011;60547;48.502;8.996;2023-02-18T07:57:04;2.30;;;0.95;;
72524;SDS011;60547;48.502;8.996;2023-02-18T07:59:29;2.33;;;1.23;;
72524;SDS011;60547;48.502;8.996;2023-02-18T08:01:55;2.63;;;1.52;;
72524;SDS011;60547;48.502;8.996;2023-02-18T08:04:20;2.03;;;1.00;;
72524;SDS011;60547;48.502;8.996;2023-02-18T08:06:46;3.28;;;1.48;;
72524;SDS011;60547;48.502;8.996;2023-02-18T08:09:14;2.25;;;1.00;;
72524;SDS011;60547;48.502;8.996;2023-02-18T08:11:40;1.90;;;1.02;;
72524;SDS011;60547;48.502;8.996;2023-02-18T08:14:06;2.03;;;1.08;;
72524;SDS011;60547;48.502;8.996;2023-02-18T08:16:32;1.77;;;1.00;;
72524;SDS011;60547;48.502;8.996;2023-02-18T08:18:59;1.75;;;1.10;;
72524;SDS011;60547;48.502;8.996;2023-02-18T08:21:25;2.60;;;1.30;;
72524;SDS011;60547;48.502;8.996;2023-02-18T08:23:51;2.53;;;1.10;;
72524;SDS011;60547;48.502;8.996;2023-02-18T08:26:17;2.70;;;1.33;;
72524;SDS011;60547;48.502;8.996;2023-02-18T08:28:45;1.70;;;0.90;;
72524;SDS011;60547;48.502;8.996;2023-02-18T08:31:19;2.75;;;1.20;;
72524;SDS011;60547;48.502;8.996;2023-02-18T08:33:46;2.65;;;1.33;;
72524;SDS011;60547;48.502;8.996;2023-02-18T08:36:12;3.13;;;1.42;;
72524;SDS011;60547;48.502;8.996;2023-02-18T08:38:38;3.00;;;1.20;;
72524;SDS011;60547;48.502;8.996;2023-02-18T08:41:04;2.88;;;1.20;;
72524;SDS011;60547;48.502;8.996;2023-02-18T08:43:31;3.60;;;1.30;;
72524;SDS011;60547;48.502;8.996;2023-02-18T08:45:57;2.10;;;1.20;;
72524;SDS011;60547;48.502;8.996;2023-02-18T08:48:23;3.95;;;1.40;;
72524;SDS011;60547;48.502;8.996;2023-02-18T08:50:49;4.07;;;2.70;;
72524;SDS011;60547;48.502;8.996;2023-02-18T08:53:14;3.63;;;1.88;;
72524;SDS011;60547;48.502;8.996;2023-02-18T08:55:41;5.03;;;1.35;;
72524;SDS011;60547;48.502;8.996;2023-02-18T08:58:07;2.60;;;1.63;;
72524;SDS011;60547;48.502;8.996;2023-02-18T09:00:33;2.80;;;1.30;;
72524;SDS011;60547;48.502;8.996;2023-02-18T09:02:58;3.97;;;2.10;;
72524;SDS011;60547;48.502;8.996;2023-02-18T09:05:24;2.38;;;1.33;;
72524;SDS011;60547;48.502;8.996;2023-02-18T09:07:49;3.78;;;1.73;;
72524;SDS011;60547;48.502;8.996;2023-02-18T09:10:15;2.78;;;1.23;;
72524;SDS011;60547;48.502;8.996;2023-02-18T09:12:40;4.28;;;1.30;;
72524;SDS011;60547;48.502;8.996;2023-02-18T09:15:06;2.70;;;1.20;;
72524;SDS011;60547;48.502;8.996;2023-02-18T09:17:32;2.33;;;1.35;;
72524;SDS011;60547;48.502;8.996;2023-02-18T09:19:57;1.55;;;0.80;;
72524;SDS011;60547;48.502;8.996;2023-02-18T09:22:23;2.97;;;1.10;;
72524;SDS011;60547;48.502;8.996;2023-02-18T09:24:48;2.47;;;1.10;;
72524;SDS011;60547;48.502;8.996;2023-02-18T09:27:14;1.50;;;0.90;;
72524;SDS011;60547;48.502;8.996;2023-02-18T09:29:40;2.28;;;1.17;;
72524;SDS011;60547;48.502;8.996;2023-02-18T09:32:06;2.72;;;1.05;;
72524;SDS011;60547;48.502;8.996;2023-02-18T09:34:33;2.40;;;1.10;;
72524;SDS011;60547;48.502;8.996;2023-02-18T09:37:00;3.00;;;1.25;;
72524;SDS011;60547;48.502;8.996;2023-02-18T09:39:26;2.50;;;1.10;;
72524;SDS011;60547;48.502;8.996;2023-02-18T09:41:55;2.30;;;1.00;;
72524;SDS011;60547;48.502;8.996;2023-02-18T09:44:33;2.38;;;1.30;;
72524;SDS011;60547;48.502;8.996;2023-02-18T09:47:09;2.22;;;0.93;;
72524;SDS011;60547;48.502;8.996;2023-02-18T09:49:40;2.30;;;0.88;;
72524;SDS011;60547;48.502;8.996;2023-02-18T09:52:13;1.38;;;0.90;;
72524;SDS011;60547;48.502;8.996;2023-02-18T09:54:43;1.67;;;0.82;;
72524;SDS011;60547;48.502;8.996;2023-02-18T09:57:14;5.15;;;1.30;;
72524;SDS011;60547;48.502;8.996;2023-02-18T09:59:47;1.88;;;0.90;;
72524;SDS011;60547;48.502;8.996;2023-02-18T10:02:20;2.53;;;1.10;;
72524;SDS011;60547;48.502;8.996;2023-02-18T10:04:47;2.13;;;1.00;;
72524;SDS011;60547;48.502;8.996;2023-02-18T10:07:20;2.40;;;1.10;;
72524;SDS011;60547;48.502;8.996;2023-02-18T10:10:00;1.58;;;0.75;;
72524;SDS011;60547;48.502;8.996;2023-02-18T10:12:30;1.80;;;1.00;;
72524;SDS011;60547;48.502;8.996;2023-02-18T10:14:57;3.28;;;1.00;;
72524;SDS011;60547;48.502;8.996;2023-02-18T10:17:26;2.08;;;0.90;;
72524;SDS011;60547;48.502;8.996;2023-02-18T10:19:54;2.17;;;1.10;;
72524;SDS011;60547;48.502;8.996;2023-02-18T10:22:21;3.38;;;1.00;;
72524;SDS011;60547;48.502;8.996;2023-02-18T10:24:59;1.90;;;0.95;;
72524;SDS011;60547;48.502;8.996;2023-02-18T10:27:28;2.38;;;1.10;;
72524;SDS011;60547;48.502;8.996;2023-02-18T10:30:04;1.77;;;0.95;;
72524;SDS011;60547;48.502;8.996;2023-02-18T10:32:37;2.72;;;1.20;;
72524;SDS011;60547;48.502;8.996;2023-02-18T10:35:18;2.92;;;1.20;;
72524;SDS011;60547;48.502;8.996;2023-02-18T10:41:03;4.47;;;1.30;;
72524;SDS011;60547;48.502;8.996;2023-02-18T10:49:59;2.90;;;1.55;;
72524;SDS011;60547;48.502;8.996;2023-02-18T10:52:29;3.88;;;1.23;;
72524;SDS011;60547;48.502;8.996;2023-02-18T10:55:09;1.75;;;0.90;;
72524;SDS011;60547;48.502;8.996;2023-02-18T10:57:46;2.80;;;1.33;;
72524;SDS011;60547;48.502;8.996;2023-02-18T11:02:44;2.83;;;1.30;;
72524;SDS011;60547;48.502;8.996;2023-02-18T11:05:23;1.88;;;1.10;;
72524;SDS011;60547;48.502;8.996;2023-02-18T11:07:52;3.58;;;1.20;;
72524;SDS011;60547;48.502;8.996;2023-02-18T11:10:22;2.38;;;1.00;;
72524;SDS011;60547;48.502;8.996;2023-02-18T11:12:50;2.53;;;1.00;;
72524;SDS011;60547;48.502;8.996;2023-02-18T11:15:23;2.45;;;1.02;;
72524;SDS011;60547;48.502;8.996;2023-02-18T11:17:54;2.35;;;1.02;;
72524;SDS011;60547;48.502;8.996;2023-02-18T11:23:14;1.85;;;0.93;;
72524;SDS011;60547;48.502;8.996;2023-02-18T11:25:51;1.95;;;1.05;;
72524;SDS011;60547;48.502;8.996;2023-02-18T11:31:07;1.65;;;0.90;;
72524;SDS011;60547;48.502;8.996;2023-02-18T11:33:38;2.40;;;1.30;;
72524;SDS011;60547;48.502;8.996;2023-02-18T11:38:45;2.67;;;1.10;;
72524;SDS011;60547;48.502;8.996;2023-02-18T11:41:16;1.95;;;1.10;;
72524;SDS011;60547;48.502;8.996;2023-02-18T11:43:45;2.53;;;1.02;;
72524;SDS011;60547;48.502;8.996;2023-02-18T11:46:17;3.05;;;1.10;;
72524;SDS011;60547;48.502;8.996;2023-02-18T11:48:48;2.67;;;1.20;;
72524;SDS011;60547;48.502;8.996;2023-02-18T11:53:58;3.20;;;1.10;;
72524;SDS011;60547;48.502;8.996;2023-02-18T11:56:28;3.03;;;1.20;;
72524;SDS011;60547;48.502;8.996;2023-02-18T11:58:55;2.00;;;1.00;;
72524;SDS011;60547;48.502;8.996;2023-02-18T12:01:42;2.70;;;1.20;;
72524;SDS011;60547;48.502;8.996;2023-02-18T12:04:13;2.08;;;1.10;;
72524;SDS011;60547;48.502;8.996;2023-02-18T12:06:51;3.47;;;1.10;;
72524;SDS011;60547;48.502;8.996;2023-02-18T12:12:04;6.30;;;2.67;;
72524;SDS011;60547;48.502;8.996;2023-02-18T12:14:42;4.28;;;1.60;;
72524;SDS011;60547;48.502;8.996;2023-02-18T12:33:32;3.08;;;1.10;;
72524;SDS011;60547;48.502;8.996;2023-02-18T12:36:14;2.65;;;1.20;;
72524;SDS011;60547;48.502;8.996;2023-02-18T12:44:12;3.10;;;1.25;;
72524;SDS011;60547;48.502;8.996;2023-02-18T13:00:43;2.53;;;1.10;;
72524;SDS011;60547;48.502;8.996;2023-02-18T13:14:06;3.08;;;1.48;;
72524;SDS011;60547;48.502;8.996;2023-02-18T13:16:37;4.38;;;1.52;;
72524;SDS011;60547;48.502;8.996;2023-02-18T13:19:25;5.68;;;1.95;;
72524;SDS011;60547;48.502;8.996;2023-02-18T13:21:58;3.80;;;1.75;;
72524;SDS011;60547;48.502;8.996;2023-02-18T13:24:38;3.00;;;1.20;;
72524;SDS011;60547;48.502;8.996;2023-02-18T13:32:20;2.67;;;1.63;;
72524;SDS011;60547;48.502;8.996;2023-02-18T13:35:16;3.00;;;1.30;;
72524;SDS011;60547;48.502;8.996;2023-02-18T13:38:15;2.95;;;1.20;;
72524;SDS011;60547;48.502;8.996;2023-02-18T13:40:55;2.22;;;1.00;;
72524;SDS011;60547;48.502;8.996;2023-02-18T13:48:45;2.40;;;1.10;;
72524;SDS011;60547;48.502;8.996;2023-02-18T13:51:15;2.78;;;1.23;;
72524;SDS011;60547;48.502;8.996;2023-02-18T13:53:52;2.97;;;1.20;;
72524;SDS011;60547;48.502;8.996;2023-02-18T13:56:28;2.65;;;1.20;;
72524;SDS011;60547;48.502;8.996;2023-02-18T14:01:48;2.60;;;1.30;;
72524;SDS011;60547;48.502;8.996;2023-02-18T14:09:57;6.13;;;1.80;;
72524;SDS011;60547;48.502;8.996;2023-02-18T14:12:46;3.00;;;1.25;;
72524;SDS011;60547;48.502;8.996;2023-02-18T14:25:47;2.70;;;1.40;;
72524;SDS011;60547;48.502;8.996;2023-02-18T14:33:39;3.00;;;1.10;;
72524;SDS011;60547;48.502;8.996;2023-02-18T14:42:09;3.03;;;1.25;;
72524;SDS011;60547;48.502;8.996;2023-02-18T14:50:15;4.60;;;1.88;;
72524;SDS011;60547;48.502;8.996;2023-02-18T14:57:50;4.63;;;1.88;;
72524;SDS011;60547;48.502;8.996;2023-02-18T15:00:21;3.53;;;1.70;;
72524;SDS011;60547;48.502;8.996;2023-02-18T15:02:50;2.80;;;1.50;;
72524;SDS011;60547;48.502;8.996;2023-02-18T15:10:30;3.42;;;1.70;;
72524;SDS011;60547;48.502;8.996;2023-02-18T15:13:08;2.75;;;1.30;;
72524;SDS011;60547;48.502;8.996;2023-02-18T15:15:39;2.67;;;1.30;;
72524;SDS011;60547;48.502;8.996;2023-02-18T15:18:12;3.47;;;1.50;;
72524;SDS011;60547;48.502;8.996;2023-02-18T15:20:45;2.90;;;1.48;;
72524;SDS011;60547;48.502;8.996;2023-02-18T15:23:12;3.58;;;1.42;;
72524;SDS011;60547;48.502;8.996;2023-02-18T15:25:41;2.75;;;1.45;;
72524;SDS011;60547;48.502;8.996;2023-02-18T15:28:28;2.88;;;1.10;;
72524;SDS011;60547;48.502;8.996;2023-02-18T15:30:57;2.33;;;1.13;;
72524;SDS011;60547;48.502;8.996;2023-02-18T15:33:26;1.98;;;0.98;;
72524;SDS011;60547;48.502;8.996;2023-02-18T15:35:59;2.13;;;1.20;;
72524;SDS011;60547;48.502;8.996;2023-02-18T15:38:25;2.90;;;1.30;;
72524;SDS011;60547;48.502;8.996;2023-02-18T15:40:51;2.75;;;1.27;;
72524;SDS011;60547;48.502;8.996;2023-02-18T15:43:20;2.40;;;1.13;;
72524;SDS011;60547;48.502;8.996;2023-02-18T15:45:48;2.00;;;1.13;;
72524;SDS011;60547;48.502;8.996;2023-02-18T15:48:20;4.03;;;1.58;;
72524;SDS011;60547;48.502;8.996;2023-02-18T15:51:01;2.60;;;1.20;;
72524;SDS011;60547;48.502;8.996;2023-02-18T15:53:29;3.95;;;1.38;;
72524;SDS011;60547;48.502;8.996;2023-02-18T15:56:04;2.05;;;1.10;;
72524;SDS011;60547;48.502;8.996;2023-02-18T15:58:31;3.00;;;1.38;;
72524;SDS011;60547;48.502;8.996;2023-02-18T16:01:04;2.65;;;1.30;;
72524;SDS011;60547;48.502;8.996;2023-02-18T16:03:45;2.83;;;1.30;;
72524;SDS011;60547;48.502;8.996;2023-02-18T16:06:24;3.50;;;1.40;;
72524;SDS011;60547;48.502;8.996;2023-02-18T16:11:37;4.00;;;1.42;;
72524;SDS011;60547;48.502;8.996;2023-02-18T16:14:05;3.05;;;1.48;;
72524;SDS011;60547;48.502;8.996;2023-02-18T16:16:32;3.50;;;1.60;;
72524;SDS011;60547;48.502;8.996;2023-02-18T16:18:59;5.15;;;2.30;;
72524;SDS011;60547;48.502;8.996;2023-02-18T16:24:02;3.75;;;1.90;;
72524;SDS011;60547;48.502;8.996;2023-02-18T16:26:45;3.72;;;1.38;;
72524;SDS011;60547;48.502;8.996;2023-02-18T16:29:19;2.85;;;1.50;;
72524;SDS011;60547;48.502;8.996;2023-02-18T16:31:48;3.03;;;1.42;;
72524;SDS011;60547;48.502;8.996;2023-02-18T16:34:14;3.72;;;1.75;;
72524;SDS011;60547;48.502;8.996;2023-02-18T16:36:39;4.32;;;1.70;;
72524;SDS011;60547;48.502;8.996;2023-02-18T16:39:31;4.10;;;1.70;;
72524;SDS011;60547;48.502;8.996;2023-02-18T16:41:58;6.63;;;3.00;;
72524;SDS011;60547;48.502;8.996;2023-02-18T16:44:24;4.28;;;1.90;;
72524;SDS011;60547;48.502;8.996;2023-02-18T16:46:49;4.03;;;1.85;;
72524;SDS011;60547;48.502;8.996;2023-02-18T16:49:15;3.33;;;1.63;;
72524;SDS011;60547;48.502;8.996;2023-02-18T16:51:41;6.07;;;2.55;;
72524;SDS011;60547;48.502;8.996;2023-02-18T16:54:11;4.70;;;2.47;;
72524;SDS011;60547;48.502;8.996;2023-02-18T16:56:37;4.68;;;2.40;;
72524;SDS011;60547;48.502;8.996;2023-02-18T16:59:03;5.35;;;2.20;;
72524;SDS011;60547;48.502;8.996;2023-02-18T17:01:29;7.68;;;4.10;;
72524;SDS011;60547;48.502;8.996;2023-02-18T17:03:57;8.50;;;4.95;;
72524;SDS011;60547;48.502;8.996;2023-02-18T17:06:25;7.85;;;5.00;;
72524;SDS011;60547;48.502;8.996;2023-02-18T17:08:50;5.10;;;3.35;;
72524;SDS011;60547;48.502;8.996;2023-02-18T17:11:18;5.97;;;3.70;;
72524;SDS011;60547;48.502;8.996;2023-02-18T17:13:50;5.00;;;3.22;;
72524;SDS011;60547;48.502;8.996;2023-02-18T17:16:17;4.53;;;2.40;;
72524;SDS011;60547;48.502;8.996;2023-02-18T17:18:43;4.00;;;2.28;;
72524;SDS011;60547;48.502;8.996;2023-02-18T17:21:13;5.25;;;2.22;;
72524;SDS011;60547;48.502;8.996;2023-02-18T17:23:40;4.68;;;2.38;;
72524;SDS011;60547;48.502;8.996;2023-02-18T17:28:40;4.90;;;2.55;;
72524;SDS011;60547;48.502;8.996;2023-02-18T17:31:07;4.55;;;2.40;;
72524;SDS011;60547;48.502;8.996;2023-02-18T17:33:37;4.15;;;1.95;;
72524;SDS011;60547;48.502;8.996;2023-02-18T17:36:03;5.45;;;2.90;;
72524;SDS011;60547;48.502;8.996;2023-02-18T17:38:29;5.93;;;2.75;;
72524;SDS011;60547;48.502;8.996;2023-02-18T17:40:54;4.53;;;2.65;;
72524;SDS011;60547;48.502;8.996;2023-02-18T17:43:20;4.85;;;2.58;;
72524;SDS011;60547;48.502;8.996;2023-02-18T17:45:48;4.68;;;2.40;;
72524;SDS011;60547;48.502;8.996;2023-02-18T17:48:18;7.45;;;3.83;;
72524;SDS011;60547;48.502;8.996;2023-02-18T17:50:44;10.40;;;5.07;;
72524;SDS011;60547;48.502;8.996;2023-02-18T17:53:10;6.38;;;4.13;;
72524;SDS011;60547;48.502;8.996;2023-02-18T17:55:37;5.63;;;3.38;;
72524;SDS011;60547;48.502;8.996;2023-02-18T17:58:03;5.15;;;3.13;;
72524;SDS011;60547;48.502;8.996;2023-02-18T18:00:31;4.45;;;2.40;;